Time;durP1;ratioP1;P1;durP2;ratioP2;P2;SDS_P1;SDS_P2;PMS_P1;PMS_P2;Temp;Humidity;BMP_temperature;BMP_pressure;BME280_temperature;BME280_humidity;BME280_pressure;Samples;Min_cycle;Max_cycle;Signal;HPM_P1;HPM_P2
2023/04/26 00:00:00;;;;;;;11.48;4.75;;;;;;;3.24;100.00;101760.91;5031326;28;20045;-58
2023/04/26 00:02:28;;;;;;;13.02;5.57;;;;;;;3.18;100.00;101754.94;5032697;28;20493;-54
2023/04/26 00:05:00;;;;;;;14.38;5.10;;;;;;;3.12;100.00;101761.97;5029733;28;20046;-54
2023/04/26 00:07:29;;;;;;;15.40;5.38;;;;;;;3.21;100.00;101759.22;5027167;28;20053;-53
2023/04/26 00:10:01;;;;;;;10.02;4.68;;;;;;;3.09;100.00;101757.69;5031875;28;20037;-53
2023/04/26 00:12:29;;;;;;;13.02;5.07;;;;;;;3.00;100.00;101757.88;5031899;28;20092;-54
2023/04/26 00:14:57;;;;;;;11.35;4.88;;;;;;;2.84;100.00;101755.56;5027010;28;20063;-54
2023/04/26 00:17:26;;;;;;;10.98;4.88;;;;;;;2.91;100.00;101758.91;5029367;28;20049;-53
2023/04/26 00:19:56;;;;;;;15.68;5.57;;;;;;;2.86;100.00;101761.59;5027205;28;20505;-54
2023/04/26 00:22:24;;;;;;;13.52;5.13;;;;;;;2.93;100.00;101757.16;5026632;28;20049;-54
2023/04/26 00:24:56;;;;;;;15.07;4.63;;;;;;;2.88;100.00;101754.63;5029074;28;20133;-52
2023/04/26 00:27:27;;;;;;;11.52;4.75;;;;;;;3.00;100.00;101763.94;5028393;28;20421;-55
2023/04/26 00:29:55;;;;;;;9.50;3.97;;;;;;;2.94;100.00;101758.84;5030114;28;20054;-52
2023/04/26 00:32:23;;;;;;;11.57;5.28;;;;;;;3.01;100.00;101755.28;5029824;28;20045;-54
2023/04/26 00:34:54;;;;;;;11.57;4.80;;;;;;;2.95;100.00;101757.13;5027245;28;20079;-53
2023/04/26 00:37:23;;;;;;;11.65;4.70;;;;;;;2.82;100.00;101759.94;5027978;28;20045;-53
2023/04/26 00:39:51;;;;;;;11.93;5.38;;;;;;;2.83;100.00;101758.19;5028806;28;20061;-52
2023/04/26 00:42:22;;;;;;;13.35;5.15;;;;;;;2.81;100.00;101762.53;5028834;28;20065;-53
2023/04/26 00:44:56;;;;;;;10.32;4.60;;;;;;;2.79;100.00;101762.56;5025890;28;20135;-54
2023/04/26 00:47:25;;;;;;;13.48;4.70;;;;;;;2.61;100.00;101762.91;5028286;28;20045;-53
2023/04/26 00:49:53;;;;;;;13.02;5.13;;;;;;;2.60;100.00;101759.44;5025965;28;20050;-54
2023/04/26 00:52:22;;;;;;;10.38;5.00;;;;;;;2.58;100.00;101758.63;5028249;28;20124;-50
2023/04/26 00:54:50;;;;;;;15.18;5.10;;;;;;;2.61;100.00;101757.72;5028041;28;20505;-54
2023/04/26 00:57:18;;;;;;;11.90;5.03;;;;;;;2.54;100.00;101755.22;5029207;28;20053;-52
2023/04/26 00:59:47;;;;;;;13.18;5.22;;;;;;;2.55;100.00;101745.72;5030761;28;20099;-53
2023/04/26 01:02:17;;;;;;;14.52;5.50;;;;;;;2.50;100.00;101750.97;5032055;28;20385;-52
2023/04/26 01:04:46;;;;;;;13.23;5.03;;;;;;;2.52;100.00;101754.41;5031229;28;20053;-54
2023/04/26 01:07:15;;;;;;;10.73;5.07;;;;;;;2.52;100.00;101757.00;5027395;28;20045;-54
2023/04/26 01:09:44;;;;;;;12.73;4.85;;;;;;;2.48;100.00;101757.94;5028019;28;20555;-51
2023/04/26 01:12:13;;;;;;;11.30;5.03;;;;;;;2.41;100.00;101750.25;5028010;28;20771;-50
2023/04/26 01:14:42;;;;;;;13.20;4.97;;;;;;;2.45;100.00;101755.38;5027407;28;20095;-53
2023/04/26 01:17:10;;;;;;;11.07;5.13;;;;;;;2.42;100.00;101755.44;5027997;28;20045;-53
2023/04/26 01:19:50;;;;;;;11.00;5.25;;;;;;;2.33;100.00;101750.38;5026955;28;20058;-54
2023/04/26 01:22:19;;;;;;;10.75;5.38;;;;;;;2.30;100.00;101755.63;5027827;28;20111;-53
2023/04/26 01:24:50;;;;;;;18.92;5.55;;;;;;;2.34;100.00;101757.28;5030878;28;20046;-51
2023/04/26 01:27:18;;;;;;;11.05;5.57;;;;;;;2.33;100.00;101760.75;5032018;28;20046;-53
2023/04/26 01:29:46;;;;;;;12.77;5.05;;;;;;;2.32;100.00;101764.25;5030980;28;20053;-52
2023/04/26 01:32:14;;;;;;;13.73;5.15;;;;;;;2.30;100.00;101761.66;5028108;28;20050;-53
2023/04/26 01:34:42;;;;;;;17.02;5.80;;;;;;;2.25;100.00;101765.22;5027042;28;20053;-51
2023/04/26 01:37:10;;;;;;;13.25;5.13;;;;;;;2.31;100.00;101765.13;5029968;28;20057;-50
2023/04/26 01:39:38;;;;;;;13.85;5.25;;;;;;;2.20;100.00;101760.13;5031202;28;20053;-51
2023/04/26 01:42:08;;;;;;;14.80;5.30;;;;;;;2.19;100.00;101760.97;5027874;28;20041;-59
2023/04/26 01:44:36;;;;;;;13.80;5.82;;;;;;;2.28;100.00;101763.44;5027403;28;20045;-58
2023/04/26 01:47:04;;;;;;;12.73;5.72;;;;;;;2.23;100.00;101761.81;5028235;28;20107;-58
2023/04/26 01:49:35;;;;;;;13.82;5.25;;;;;;;2.22;100.00;101765.28;5029985;28;20041;-58
2023/04/26 01:52:04;;;;;;;11.73;5.38;;;;;;;2.11;100.00;101766.28;5027963;28;20042;-58
2023/04/26 01:54:32;;;;;;;11.35;5.35;;;;;;;1.99;100.00;101761.28;5027522;28;20050;-60
2023/04/26 01:57:01;;;;;;;13.05;5.50;;;;;;;1.93;100.00;101757.03;5028029;28;20493;-58
2023/04/26 01:59:31;;;;;;;13.18;5.53;;;;;;;2.00;100.00;101763.88;5032857;28;20099;-58
2023/04/26 02:01:59;;;;;;;14.40;5.75;;;;;;;2.03;100.00;101760.34;5034933;28;20448;-58
2023/04/26 02:04:27;;;;;;;10.60;5.30;;;;;;;1.89;100.00;101760.56;5030985;28;20455;-58
2023/04/26 02:06:56;;;;;;;13.07;6.28;;;;;;;1.82;100.00;101764.13;5031083;28;20058;-58
2023/04/26 02:09:24;;;;;;;13.07;6.00;;;;;;;1.78;100.00;101763.31;5030881;28;20160;-58
2023/04/26 02:11:55;;;;;;;17.58;5.82;;;;;;;1.75;100.00;101760.75;5034792;28;20041;-59
2023/04/26 02:14:23;;;;;;;13.70;5.57;;;;;;;1.84;100.00;101762.34;5034538;28;20045;-59
2023/04/26 02:16:52;;;;;;;14.90;6.28;;;;;;;1.84;100.00;101762.34;5034260;28;20050;-59
2023/04/26 02:19:20;;;;;;;15.55;6.85;;;;;;;1.88;100.00;101758.84;5033914;28;20055;-59
2023/04/26 02:21:52;;;;;;;13.13;5.82;;;;;;;1.97;100.00;101758.72;5029897;28;20060;-59
2023/04/26 02:24:23;;;;;;;13.73;5.22;;;;;;;1.83;100.00;101763.25;5031255;28;20040;-59
2023/04/26 02:26:53;;;;;;;13.85;5.90;;;;;;;1.81;100.00;101759.81;5031129;28;20060;-59
2023/04/26 02:29:21;;;;;;;16.10;7.50;;;;;;;1.84;100.00;101758.03;5031114;28;20052;-59
2023/04/26 02:32:11;;;;;;;13.75;5.68;;;;;;;1.77;100.00;101755.53;5029727;28;20045;-54
2023/04/26 02:34:43;;;;;;;15.98;7.95;;;;;;;1.69;100.00;101758.22;5029502;28;20601;-59
2023/04/26 02:37:11;;;;;;;12.88;6.25;;;;;;;1.74;100.00;101759.03;5030186;28;20057;-58
2023/04/26 02:39:39;;;;;;;18.05;6.45;;;;;;;1.67;100.00;101760.00;5030623;28;20392;-53
2023/04/26 02:42:09;;;;;;;13.20;6.05;;;;;;;1.80;100.00;101758.97;5030486;28;20132;-51
2023/04/26 02:44:38;;;;;;;12.98;5.78;;;;;;;1.69;100.00;101758.22;5030037;28;20049;-53
2023/04/26 02:47:06;;;;;;;13.98;6.00;;;;;;;1.67;100.00;101755.66;5031238;28;20056;-55
2023/04/26 02:49:36;;;;;;;11.77;5.97;;;;;;;1.76;100.00;101759.88;5033064;28;20435;-55
2023/04/26 02:52:04;;;;;;;16.45;6.15;;;;;;;1.79;100.00;101756.41;5031180;28;20045;-54
2023/04/26 02:54:32;;;;;;;14.02;6.13;;;;;;;1.77;100.00;101759.03;5030182;28;20120;-52
2023/04/26 02:57:00;;;;;;;14.00;5.90;;;;;;;1.76;100.00;101756.41;5030025;28;20128;-53
2023/04/26 02:59:29;;;;;;;13.60;5.88;;;;;;;1.69;100.00;101753.03;5031028;28;20083;-53
2023/04/26 03:01:57;;;;;;;18.20;6.53;;;;;;;1.67;100.00;101754.81;5032390;28;20191;-52
2023/04/26 03:04:25;;;;;;;15.95;6.35;;;;;;;1.62;100.00;101754.00;5028727;28;20413;-53
2023/04/26 03:06:54;;;;;;;16.80;6.43;;;;;;;1.59;100.00;101754.06;5029396;28;20804;-54
2023/04/26 03:09:25;;;;;;;12.95;6.80;;;;;;;1.62;100.00;101754.00;5033394;28;20529;-52
2023/04/26 03:11:53;;;;;;;14.60;6.95;;;;;;;1.62;100.00;101752.31;5033637;28;20053;-53
2023/04/26 03:14:21;;;;;;;17.20;7.05;;;;;;;1.54;100.00;101750.66;5032048;28;20477;-52
2023/04/26 03:16:49;;;;;;;14.07;6.78;;;;;;;1.52;100.00;101750.69;5029627;28;20053;-52
2023/04/26 03:19:17;;;;;;;14.82;7.18;;;;;;;1.45;100.00;101749.91;5032616;28;20037;-52
2023/04/26 03:21:46;;;;;;;21.55;7.40;;;;;;;1.47;100.00;101758.53;5030030;28;20049;-53
2023/04/26 03:24:15;;;;;;;16.38;7.57;;;;;;;1.44;100.00;101757.72;5029480;28;20052;-51
2023/04/26 03:26:43;;;;;;;15.55;7.43;;;;;;;1.42;100.00;101756.84;5029126;28;20049;-55
2023/04/26 03:29:12;;;;;;;16.45;7.53;;;;;;;1.39;100.00;101755.19;5029369;28;20056;-53
2023/04/26 03:31:40;;;;;;;18.02;7.18;;;;;;;1.50;100.00;101752.44;5029406;28;20045;-54
2023/04/26 03:34:08;;;;;;;16.40;7.97;;;;;;;1.49;100.00;101750.75;5027133;28;20049;-53
2023/04/26 03:36:36;;;;;;;16.35;7.82;;;;;;;1.37;100.00;101754.34;5028871;28;20511;-53
2023/04/26 03:39:08;;;;;;;14.95;7.43;;;;;;;1.36;100.00;101750.00;5033419;28;20041;-51
2023/04/26 03:41:40;;;;;;;15.95;7.93;;;;;;;1.33;100.00;101750.06;5031493;28;20050;-51
2023/04/26 03:44:08;;;;;;;18.05;7.30;;;;;;;1.26;100.00;101749.28;5029199;28;20050;-51
2023/04/26 03:46:37;;;;;;;18.92;7.88;;;;;;;1.26;100.00;101751.03;5029011;28;20076;-53
2023/04/26 03:49:05;;;;;;;17.05;7.38;;;;;;;1.21;100.00;101748.47;5028441;28;20053;-50
2023/04/26 03:51:33;;;;;;;17.75;8.07;;;;;;;1.31;100.00;101744.03;5028876;28;20111;-53
2023/04/26 03:54:01;;;;;;;19.85;8.25;;;;;;;1.19;100.00;101739.88;5028776;28;20488;-52
2023/04/26 03:56:29;;;;;;;17.67;8.80;;;;;;;1.22;100.00;101744.16;5031118;28;20065;-54
2023/04/26 03:58:58;;;;;;;19.95;9.25;;;;;;;1.22;100.00;101746.75;5032886;28;20045;-53
2023/04/26 04:01:27;;;;;;;19.48;8.20;;;;;;;1.23;100.00;101745.84;5029458;28;20053;-53
2023/04/26 04:03:55;;;;;;;20.35;9.25;;;;;;;1.25;100.00;101739.78;5028439;28;20037;-53
2023/04/26 04:06:24;;;;;;;16.90;7.95;;;;;;;1.23;100.00;101743.25;5029739;28;20354;-51
2023/04/26 04:08:54;;;;;;;18.77;9.02;;;;;;;1.19;100.00;101739.88;5032644;28;20045;-51
2023/04/26 04:11:23;;;;;;;20.23;9.57;;;;;;;1.20;100.00;101743.31;5032723;28;20073;-54
2023/04/26 04:13:51;;;;;;;20.15;9.30;;;;;;;1.23;100.00;101738.06;5030945;28;20584;-59
2023/04/26 04:16:23;;;;;;;22.00;9.30;;;;;;;1.11;100.00;101742.53;5030400;28;20049;-53
2023/04/26 04:18:51;;;;;;;19.85;8.98;;;;;;;1.10;100.00;101743.41;5026390;28;20061;-52
2023/04/26 04:21:20;;;;;;;19.85;9.02;;;;;;;1.11;100.00;101739.94;5029685;28;20053;-53
2023/04/26 04:23:50;;;;;;;19.77;9.80;;;;;;;1.05;100.00;101750.41;5032576;28;20055;-53
2023/04/26 04:26:21;;;;;;;18.70;8.88;;;;;;;1.02;100.00;101750.41;5031112;28;20056;-52
2023/04/26 04:28:50;;;;;;;20.92;9.18;;;;;;;1.05;100.00;101750.41;5028377;28;20571;-52
2023/04/26 04:31:19;;;;;;;26.90;13.15;;;;;;;1.01;100.00;101743.53;5029049;28;20057;-52
2023/04/26 04:33:48;;;;;;;22.08;10.13;;;;;;;1.05;100.00;101746.94;5029049;28;20045;-54
2023/04/26 04:36:16;;;;;;;20.58;9.82;;;;;;;1.07;100.00;101746.03;5027166;28;20049;-52
2023/04/26 04:38:45;;;;;;;20.55;10.07;;;;;;;1.10;100.00;101743.41;5029845;28;20111;-53
2023/04/26 04:41:13;;;;;;;21.17;10.07;;;;;;;1.11;100.00;101749.47;5031864;28;20057;-59
2023/04/26 04:43:41;;;;;;;25.13;10.35;;;;;;;1.07;100.00;101756.41;5028433;28;20046;-53
2023/04/26 04:46:09;;;;;;;21.35;9.57;;;;;;;1.00;100.00;101747.00;5030121;28;20064;-52
2023/04/26 04:48:40;;;;;;;22.83;10.63;;;;;;;1.07;100.00;101743.44;5032099;28;20049;-55
2023/04/26 04:51:09;;;;;;;22.48;9.93;;;;;;;1.04;100.00;101747.78;5028218;28;20496;-50
2023/04/26 04:53:38;;;;;;;21.40;10.60;;;;;;;1.01;100.00;101756.47;5027552;28;20068;-53
2023/04/26 04:56:06;;;;;;;21.20;10.77;;;;;;;1.02;100.00;101750.41;5028014;28;20444;-53
2023/04/26 04:58:34;;;;;;;22.27;10.90;;;;;;;1.09;100.00;101762.44;5027931;28;20065;-54
2023/04/26 05:01:02;;;;;;;20.35;9.75;;;;;;;1.16;100.00;101763.22;5028098;28;20041;-53
2023/04/26 05:03:32;;;;;;;24.48;10.15;;;;;;;1.21;100.00;101756.25;5028422;28;20056;-52
2023/04/26 05:06:01;;;;;;;22.05;10.60;;;;;;;1.18;100.00;101757.13;5025939;28;20100;-52
2023/04/26 05:08:30;;;;;;;24.23;10.20;;;;;;;1.12;100.00;101758.97;5028007;28;20107;-53
2023/04/26 05:10:58;;;;;;;23.02;11.65;;;;;;;1.10;100.00;101755.50;5028317;28;20096;-53
2023/04/26 05:13:26;;;;;;;24.35;10.93;;;;;;;1.07;100.00;101758.16;5028045;28;20042;-54
2023/04/26 05:15:55;;;;;;;24.98;11.80;;;;;;;1.12;100.00;101761.56;5028057;28;20067;-53
2023/04/26 05:18:23;;;;;;;25.00;12.20;;;;;;;1.14;100.00;101763.22;5026858;28;20056;-52
2023/04/26 05:20:51;;;;;;;23.42;11.05;;;;;;;1.13;100.00;101769.31;5025856;28;20121;-54
2023/04/26 05:23:19;;;;;;;24.90;11.10;;;;;;;1.20;100.00;101764.03;5028485;28;20772;-53
2023/04/26 05:25:51;;;;;;;26.70;11.27;;;;;;;1.17;100.00;101770.09;5027993;28;20124;-52
2023/04/26 05:28:22;;;;;;;;;;;;;;;1.21;100.00;101776.13;5029032;28;20163;-51
2023/04/26 05:30:50;;;;;;;22.73;10.10;;;;;;;1.22;100.00;101770.91;5029104;28;19928;-52
2023/04/26 05:33:18;;;;;;;27.85;11.38;;;;;;;1.29;100.00;101771.72;5030596;28;20104;-53
2023/04/26 05:35:46;;;;;;;22.60;10.73;;;;;;;1.32;100.00;101780.31;5030133;28;20053;-51
2023/04/26 05:38:15;;;;;;;21.92;11.18;;;;;;;1.39;100.00;101777.63;5031898;28;20104;-53
2023/04/26 05:40:43;;;;;;;23.33;11.88;;;;;;;1.46;100.00;101780.16;5034941;28;20505;-51
2023/04/26 05:43:12;;;;;;;20.20;10.23;;;;;;;1.57;100.00;101766.19;5032470;28;20115;-53
2023/04/26 05:45:41;;;;;;;21.02;9.95;;;;;;;1.63;100.00;101771.28;5031494;28;20057;-58
2023/04/26 05:48:09;;;;;;;26.90;10.82;;;;;;;1.73;100.00;101774.63;5031833;28;20073;-58
2023/04/26 05:50:37;;;;;;;20.90;10.57;;;;;;;1.81;100.00;101780.56;5030495;28;20118;-59
2023/04/26 05:53:07;;;;;;;21.70;10.27;;;;;;;1.95;100.00;101786.44;5032851;28;20099;-59
2023/04/26 05:55:35;;;;;;;22.15;9.63;;;;;;;1.99;100.00;101780.31;5033154;28;20068;-59
2023/04/26 05:58:03;;;;;;;20.27;9.55;;;;;;;2.09;100.00;101787.97;5031166;28;20089;-57
2023/04/26 06:00:33;;;;;;;17.60;8.93;;;;;;;2.18;100.00;101783.50;5034909;28;20065;-58
2023/04/26 06:03:01;;;;;;;20.42;9.65;;;;;;;2.29;100.00;101779.88;5031682;28;20412;-53
2023/04/26 06:05:29;;;;;;;19.25;8.88;;;;;;;2.44;100.00;101783.97;5029352;28;20048;-50
2023/04/26 06:07:58;;;;;;;25.30;10.05;;;;;;;2.65;100.00;101782.75;5030526;28;20054;-52
2023/04/26 06:10:26;;;;;;;18.40;9.15;;;;;;;2.72;100.00;101786.97;5031651;28;20046;-52
2023/04/26 06:12:57;;;;;;;26.13;9.90;;;;;;;2.85;100.00;101791.06;5030056;28;20057;-54
2023/04/26 06:15:26;;;;;;;20.65;9.80;;;;;;;2.96;100.00;101784.81;5030935;28;20203;-59
2023/04/26 06:17:56;;;;;;;21.30;8.90;;;;;;;3.11;100.00;101794.94;5030181;28;20164;-58
2023/04/26 06:20:27;;;;;;;20.73;8.25;;;;;;;3.25;100.00;101791.22;5029990;28;20068;-58
2023/04/26 06:22:55;;;;;;;17.98;7.68;;;;;;;3.42;100.00;101802.13;5029432;28;20148;-59
2023/04/26 06:25:26;;;;;;;18.20;7.75;;;;;;;3.59;100.00;101801.78;5031441;28;20045;-54
2023/04/26 06:27:54;;;;;;;15.35;6.88;;;;;;;3.72;100.00;101800.66;5034540;28;20053;-53
2023/04/26 06:30:22;;;;;;;17.98;7.95;;;;;;;3.94;100.00;101805.41;5033471;28;20481;-57
2023/04/26 06:32:50;;;;;;;15.65;6.38;;;;;;;4.13;100.00;101797.16;5031609;28;20080;-58
2023/04/26 06:35:22;;;;;;;18.30;6.75;;;;;;;4.26;100.00;101797.75;5029305;28;20107;-58
2023/04/26 06:37:50;;;;;;;16.35;5.82;;;;;;;4.40;100.00;101798.25;5030355;28;20397;-58
2023/04/26 06:40:20;;;;;;;14.95;5.95;;;;;;;4.60;100.00;101799.53;5033030;28;20046;-58
2023/04/26 06:42:53;;;;;;;15.98;5.38;;;;;;;4.70;100.00;101803.59;5031933;28;20408;-57
2023/04/26 06:45:21;;;;;;;14.23;5.22;;;;;;;4.85;100.00;101797.16;5030419;28;20057;-58
2023/04/26 06:47:51;;;;;;;14.93;5.05;;;;;;;4.94;100.00;101804.75;5030611;28;20168;-58
2023/04/26 06:50:21;;;;;;;13.68;4.97;;;;;;;5.01;100.00;101811.50;5029551;28;20056;-58
2023/04/26 06:52:50;;;;;;;16.30;5.65;;;;;;;5.11;100.00;101809.50;5028945;28;20412;-58
2023/04/26 06:55:18;;;;;;;14.43;5.10;;;;;;;5.17;100.00;101809.34;5030546;28;20049;-58
2023/04/26 06:57:46;;;;;;;13.27;5.47;;;;;;;5.31;100.00;101808.97;5029983;28;20482;-58
2023/04/26 07:00:16;;;;;;;15.02;4.97;;;;;;;5.43;100.00;101807.78;5030031;28;20111;-58
2023/04/26 07:02:45;;;;;;;12.98;5.18;;;;;;;5.55;100.00;101806.56;5030541;28;20512;-58
2023/04/26 07:05:14;;;;;;;14.05;4.78;;;;;;;5.63;100.00;101820.25;5028811;28;20069;-58
2023/04/26 07:07:43;;;;;;;9.95;4.57;;;;;;;5.77;100.00;101825.06;5029671;28;20149;-58
2023/04/26 07:10:12;;;;;;;12.15;4.15;;;;;;;5.91;100.00;101819.44;5032341;28;20071;-58
2023/04/26 07:12:40;;;;;;;11.88;4.43;;;;;;;6.06;100.00;101823.38;5033816;28;20080;-58
2023/04/26 07:15:09;;;;;;;11.55;4.07;;;;;;;6.26;100.00;101820.16;5033554;28;20547;-58
2023/04/26 07:17:37;;;;;;;11.02;4.32;;;;;;;6.40;100.00;101822.31;5029662;28;20103;-59
2023/04/26 07:20:07;;;;;;;11.38;3.72;;;;;;;6.58;100.00;101821.69;5026807;28;20500;-59
2023/04/26 07:22:35;;;;;;;9.07;3.53;;;;;;;6.70;100.00;101823.06;5029007;28;20080;-59
2023/04/26 07:25:05;;;;;;;10.05;3.58;;;;;;;6.88;100.00;101823.34;5029668;28;20049;-59
2023/04/26 07:27:33;;;;;;;10.23;3.60;;;;;;;7.02;100.00;101821.13;5028578;28;20918;-59
2023/04/26 07:30:01;;;;;;;8.02;3.17;;;;;;;7.15;100.00;101826.78;5028171;28;20769;-59
2023/04/26 07:32:29;;;;;;;9.20;2.60;;;;;;;7.21;100.00;101816.13;5032491;28;20049;-59
2023/04/26 07:34:57;;;;;;;9.63;2.53;;;;;;;7.31;100.00;101819.25;5027046;28;20042;-58
2023/04/26 07:37:25;;;;;;;10.60;2.60;;;;;;;7.39;100.00;101817.22;5029242;28;20057;-59
2023/04/26 07:39:54;;;;;;;8.32;2.72;;;;;;;7.51;100.00;101810.69;5032419;28;20174;-58
2023/04/26 07:42:23;;;;;;;8.43;2.58;;;;;;;7.68;100.00;101804.81;5030226;28;20060;-58
2023/04/26 07:44:52;;;;;;;9.13;2.45;;;;;;;7.77;100.00;101816.69;5029321;28;20053;-58
2023/04/26 07:47:23;;;;;;;6.18;2.20;;;;;;;7.83;100.00;101808.59;5030159;28;20065;-59
2023/04/26 07:49:54;;;;;;;6.75;2.72;;;;;;;7.98;100.00;101808.94;5028182;28;20417;-59
2023/04/26 07:52:22;;;;;;;8.13;2.63;;;;;;;8.04;100.00;101806.06;5029255;28;20492;-59
2023/04/26 07:54:50;;;;;;;7.88;2.90;;;;;;;8.15;100.00;101810.88;5031412;28;20124;-59
2023/04/26 07:57:18;;;;;;;10.80;2.72;;;;;;;8.27;100.00;101808.63;5032349;28;20562;-60
2023/04/26 07:59:48;;;;;;;9.55;2.63;;;;;;;8.35;100.00;101812.72;5027878;28;20310;-60
2023/04/26 08:02:16;;;;;;;11.75;3.35;;;;;;;8.50;100.00;101814.75;5029239;28;20077;-59
2023/04/26 08:04:48;;;;;;;8.40;2.60;;;;;;;8.67;100.00;101808.81;5027843;28;20057;-59
2023/04/26 08:07:16;;;;;;;8.73;2.67;;;;;;;8.73;100.00;101813.78;5026773;28;20057;-59
2023/04/26 08:09:45;;;;;;;7.55;2.10;;;;;;;8.78;100.00;101809.22;5028970;28;20457;-59
2023/04/26 08:12:13;;;;;;;5.13;1.83;;;;;;;8.84;100.00;101812.50;5027932;28;20041;-59
2023/04/26 08:14:41;;;;;;;6.18;1.85;;;;;;;8.91;100.00;101817.41;5028458;28;20073;-59
2023/04/26 08:17:11;;;;;;;5.40;1.90;;;;;;;9.06;100.00;101817.69;5029043;28;20049;-59
2023/04/26 08:19:40;;;;;;;6.88;1.90;;;;;;;9.08;100.00;101826.31;5028004;28;20057;-59
2023/04/26 08:22:11;;;;;;;5.07;1.67;;;;;;;9.07;100.00;101825.47;5028125;28;20188;-54
2023/04/26 08:24:39;;;;;;;8.23;2.28;;;;;;;9.19;100.00;101824.09;5032461;28;20056;-55
2023/04/26 08:27:07;;;;;;;7.75;2.03;;;;;;;9.23;100.00;101820.41;5030382;28;20044;-55
2023/04/26 08:29:35;;;;;;;6.40;2.15;;;;;;;9.26;100.00;101825.53;5028388;28;20180;-54
2023/04/26 08:32:03;;;;;;;4.28;1.65;;;;;;;9.38;100.00;101828.53;5031554;28;20045;-56
2023/04/26 08:34:33;;;;;;;4.93;1.90;;;;;;;9.40;100.00;101830.16;5031704;28;20077;-55
2023/04/26 08:37:01;;;;;;;10.30;1.98;;;;;;;9.54;100.00;101824.28;5027834;28;20053;-56
2023/04/26 08:39:29;;;;;;;7.60;1.88;;;;;;;9.91;100.00;101813.88;5029829;28;20052;-56
2023/04/26 08:42:05;;;;;;;6.38;2.38;;;;;;;10.21;100.00;101819.47;5030014;28;20127;-55
2023/04/26 08:44:35;;;;;;;8.02;2.17;;;;;;;10.51;99.72;101821.53;5028471;28;20076;-56
2023/04/26 08:47:10;;;;;;;9.93;2.22;;;;;;;10.53;98.20;101819.69;5028388;28;20103;-55
2023/04/26 08:49:42;;;;;;;6.15;2.40;;;;;;;10.53;97.23;101817.06;5028573;28;20051;-55
2023/04/26 08:52:12;;;;;;;8.60;2.20;;;;;;;10.65;100.00;101819.06;5030255;28;20069;-56
2023/04/26 08:54:41;;;;;;;10.93;2.70;;;;;;;10.21;97.61;101814.22;5028383;28;20045;-56
2023/04/26 08:57:10;;;;;;;10.38;2.47;;;;;;;10.62;100.00;101818.38;5028196;28;20069;-55
2023/04/26 08:59:39;;;;;;;5.60;1.95;;;;;;;10.76;97.46;101813.28;5027832;28;20057;-56
2023/04/26 09:02:09;;;;;;;8.45;2.30;;;;;;;10.78;92.73;101818.47;5027947;28;20049;-56
2023/04/26 09:04:37;;;;;;;7.70;2.03;;;;;;;10.82;94.46;101810.34;5026418;28;20124;-56
2023/04/26 09:07:08;;;;;;;8.70;2.17;;;;;;;10.75;91.03;101816.00;5030603;28;20503;-55
2023/04/26 09:09:41;;;;;;;7.78;2.10;;;;;;;10.27;88.84;101811.25;5032277;28;20378;-57
2023/04/26 09:12:12;;;;;;;6.13;2.00;;;;;;;10.58;92.17;101815.06;5035929;28;20046;-55
2023/04/26 09:14:40;;;;;;;9.13;2.25;;;;;;;10.48;91.88;101805.91;5034730;28;20084;-60
2023/04/26 09:17:26;;;;;;;7.10;2.17;;;;;;;10.39;92.72;101806.34;5032090;28;20045;-60
2023/04/26 09:19:55;;;;;;;5.38;2.38;;;;;;;10.21;93.96;101808.06;5034216;28;20140;-60
2023/04/26 09:22:33;;;;;;;8.73;2.13;;;;;;;10.26;94.10;101812.19;5030600;28;20049;-60
2023/04/26 09:25:02;;;;;;;8.90;2.42;;;;;;;10.20;95.77;101807.22;5032389;28;20053;-59
2023/04/26 09:27:34;;;;;;;11.20;2.70;;;;;;;10.23;93.31;101804.44;5033560;28;20481;-59
2023/04/26 09:30:09;;;;;;;12.23;2.83;;;;;;;10.35;94.46;101805.69;5031288;28;20053;-59
2023/04/26 09:32:45;;;;;;;10.55;2.70;;;;;;;10.38;91.40;101802.03;5034734;28;20045;-59
2023/04/26 09:35:26;;;;;;;8.80;2.63;;;;;;;10.20;91.78;101804.59;5029722;28;20049;-59
2023/04/26 09:37:58;;;;;;;8.35;2.33;;;;;;;10.25;90.26;101807.88;5031571;28;20053;-59
2023/04/26 09:40:36;;;;;;;6.65;2.53;;;;;;;10.12;90.09;101806.75;5031678;28;20572;-59
2023/04/26 09:43:06;;;;;;;7.10;2.22;;;;;;;10.17;92.66;101806.53;5030066;28;20057;-59
2023/04/26 09:45:44;;;;;;;5.43;2.13;;;;;;;10.46;91.33;101802.53;5030808;28;20504;-59
2023/04/26 09:48:17;;;;;;;8.00;2.50;;;;;;;10.28;90.13;101809.47;5031292;28;20064;-59
2023/04/26 09:50:46;;;;;;;9.13;2.45;;;;;;;10.20;92.28;101801.97;5029860;28;20073;-59
2023/04/26 09:53:29;;;;;;;6.65;2.22;;;;;;;10.31;90.27;101804.94;5034305;28;20393;-59
2023/04/26 09:56:07;;;;;;;9.35;2.17;;;;;;;10.36;89.06;101806.50;5034813;28;20111;-59
2023/04/26 09:58:36;;;;;;;6.90;2.00;;;;;;;10.35;81.15;101805.69;5031561;28;20080;-59
2023/04/26 10:01:05;;;;;;;7.63;1.92;;;;;;;10.36;83.06;101810.00;5032834;28;20044;-60
2023/04/26 10:03:34;;;;;;;9.50;2.10;;;;;;;10.46;82.27;101807.78;5031499;28;20053;-59
2023/04/26 10:06:03;;;;;;;5.82;2.10;;;;;;;10.37;80.42;101808.22;5030076;28;20052;-59
2023/04/26 10:08:33;;;;;;;6.07;2.35;;;;;;;10.23;84.26;101814.97;5034978;28;20041;-58
2023/04/26 10:11:03;;;;;;;7.45;2.20;;;;;;;10.09;85.95;101809.50;5035114;28;20116;-60
2023/04/26 10:13:32;;;;;;;7.22;2.13;;;;;;;10.14;89.21;101803.13;5033264;28;20049;-59
2023/04/26 10:16:00;;;;;;;10.52;2.17;;;;;;;10.24;89.97;101806.16;5030998;28;20041;-59
2023/04/26 10:18:29;;;;;;;8.07;2.03;;;;;;;10.07;89.63;101806.97;5028634;28;20041;-60
2023/04/26 10:21:02;;;;;;;6.45;2.03;;;;;;;10.11;90.75;101807.66;5029570;28;20444;-60
2023/04/26 10:23:34;;;;;;;6.43;2.50;;;;;;;10.16;89.88;101803.06;5031999;28;20477;-60
2023/04/26 10:26:05;;;;;;;;;;;;;;;10.03;91.98;101797.50;5035333;28;20045;-59
2023/04/26 10:28:55;;;;;;;8.68;2.40;;;;;;;10.15;91.46;101796.09;5031992;28;19952;-59
2023/04/26 10:32:02;;;;;;;10.25;2.33;;;;;;;10.09;90.88;101788.47;5030470;28;20491;-59
2023/04/26 10:34:33;;;;;;;5.90;2.20;;;;;;;10.05;89.67;101803.56;5029005;28;20129;-59
2023/04/26 10:37:09;;;;;;;8.32;2.40;;;;;;;10.13;89.17;101804.06;5029444;28;20045;-59
2023/04/26 10:39:40;;;;;;;5.43;1.95;;;;;;;9.98;88.02;101800.38;5030339;28;20081;-60
2023/04/26 10:42:26;;;;;;;7.80;2.20;;;;;;;10.11;87.29;101802.41;5030791;28;20080;-60
2023/04/26 10:44:55;;;;;;;8.75;2.40;;;;;;;10.23;89.04;101801.81;5030082;28;20079;-58
2023/04/26 10:47:31;;;;;;;4.18;2.30;;;;;;;10.25;88.61;101800.00;5030862;28;20037;-59
2023/04/26 10:50:05;;;;;;;5.63;2.45;;;;;;;10.35;90.22;101789.91;5033153;28;20137;-56
2023/04/26 10:52:34;;;;;;;7.97;2.33;;;;;;;10.40;88.19;101801.03;5033231;28;20050;-56
2023/04/26 10:55:05;;;;;;;10.02;2.88;;;;;;;10.49;88.84;101791.84;5030234;28;20064;-56
2023/04/26 10:57:49;;;;;;;8.95;2.63;;;;;;;10.24;86.15;101797.41;5032511;28;20496;-56
2023/04/26 11:00:28;;;;;;;9.07;2.72;;;;;;;10.30;84.03;101797.13;5028925;28;20099;-56
2023/04/26 11:03:03;;;;;;;5.13;2.38;;;;;;;10.46;86.99;101792.00;5030280;28;20069;-55
2023/04/26 11:05:53;;;;;;;;;;;;;;;10.40;82.82;101794.91;5031082;28;20061;-56
2023/04/26 11:08:25;;;;;;;7.45;2.60;;;;;;;10.37;82.06;101795.91;5030911;28;19925;-55
2023/04/26 11:11:08;;;;;;;7.55;2.85;;;;;;;10.41;85.37;101796.63;5030337;28;20060;-55
2023/04/26 11:13:37;;;;;;;7.43;2.53;;;;;;;10.57;82.42;101794.09;5029840;28;20103;-56
2023/04/26 11:16:07;;;;;;;11.15;2.67;;;;;;;10.63;78.43;101793.78;5029487;28;20049;-55
2023/04/26 11:18:37;;;;;;;7.95;2.40;;;;;;;10.68;79.88;101794.41;5030091;28;20493;-56
2023/04/26 11:21:06;;;;;;;7.43;2.63;;;;;;;10.68;80.09;101789.13;5027794;28;20053;-55
2023/04/26 11:23:35;;;;;;;8.55;2.55;;;;;;;10.70;79.83;101789.06;5029826;28;20038;-55
2023/04/26 11:26:07;;;;;;;7.93;2.75;;;;;;;10.77;81.07;101783.41;5029729;28;20045;-57
2023/04/26 11:28:37;;;;;;;5.60;2.80;;;;;;;10.74;79.54;101785.34;5029849;28;20103;-56
2023/04/26 11:31:07;;;;;;;5.95;2.17;;;;;;;10.78;79.46;101789.50;5032062;28;20123;-56